Time;durP1;ratioP1;P1;durP2;ratioP2;P2;SDS_P1;SDS_P2;PMS_P1;PMS_P2;Temp;Humidity;BMP_temperature;BMP_pressure;BME280_temperature;BME280_humidity;BME280_pressure;Samples;Min_cycle;Max_cycle;Signal;HPM_P1;HPM_P2
2022/07/16 00:02:13;;;;;;;1.37;1.10;;;16.90;99.90;;;;;;5078862;28;20404;-76
2022/07/16 00:04:40;;;;;;;1.60;1.20;;;16.80;99.90;;;;;;5078419;28;20471;-76
2022/07/16 00:07:07;;;;;;;1.10;1.00;;;16.80;99.90;;;;;;5076679;28;20536;-76
2022/07/16 00:09:33;;;;;;;2.20;1.37;;;16.70;99.90;;;;;;5076160;28;20788;-76
2022/07/16 00:12:00;;;;;;;2.13;1.60;;;16.80;99.90;;;;;;5076316;28;20868;-76
2022/07/16 00:14:27;;;;;;;1.77;1.63;;;16.80;99.90;;;;;;5076058;28;20476;-76
2022/07/16 00:16:53;;;;;;;1.73;1.27;;;16.80;99.90;;;;;;5076219;28;20448;-75
2022/07/16 00:19:23;;;;;;;1.93;1.20;;;16.70;99.90;;;;;;5076816;28;20502;-75
2022/07/16 00:21:53;;;;;;;1.40;1.30;;;16.70;99.90;;;;;;5075743;28;20540;-76
2022/07/16 00:24:20;;;;;;;2.20;1.50;;;16.60;99.90;;;;;;5075876;28;20464;-76
2022/07/16 00:26:47;;;;;;;5.03;1.37;;;16.60;99.90;;;;;;5075872;28;20444;-75
2022/07/16 00:29:15;;;;;;;1.13;1.00;;;16.50;99.90;;;;;;5075905;28;20453;-76
2022/07/16 00:31:42;;;;;;;1.60;1.40;;;16.60;99.90;;;;;;5075844;28;20831;-75
2022/07/16 00:34:10;;;;;;;3.17;1.20;;;16.60;99.90;;;;;;5075856;28;20471;-75
2022/07/16 00:36:39;;;;;;;1.97;1.37;;;16.80;99.90;;;;;;5075432;28;20981;-76
2022/07/16 00:39:07;;;;;;;1.63;1.50;;;16.80;99.90;;;;;;5075719;28;20479;-75
2022/07/16 00:41:34;;;;;;;2.60;1.40;;;16.70;99.90;;;;;;5075401;28;20437;-75
2022/07/16 00:44:02;;;;;;;1.47;1.03;;;16.70;99.90;;;;;;5075602;28;20496;-75
2022/07/16 00:46:29;;;;;;;1.13;1.00;;;16.70;99.90;;;;;;5075684;28;20448;-75
2022/07/16 00:48:57;;;;;;;1.13;1.03;;;16.70;99.90;;;;;;5075539;28;20506;-75
2022/07/16 00:51:24;;;;;;;1.80;1.20;;;16.70;99.90;;;;;;5075592;28;20826;-76
2022/07/16 00:53:53;;;;;;;1.87;1.03;;;16.70;99.90;;;;;;5075479;28;20826;-75
2022/07/16 00:56:21;;;;;;;1.00;1.00;;;16.80;99.90;;;;;;5075577;28;20452;-75
2022/07/16 00:58:49;;;;;;;1.30;1.00;;;16.70;99.90;;;;;;5075526;28;20582;-76
2022/07/16 01:01:16;;;;;;;1.53;1.00;;;16.70;99.90;;;;;;5075542;28;20849;-75
2022/07/16 01:03:44;;;;;;;1.63;1.20;;;16.80;99.90;;;;;;5075820;28;20451;-75
2022/07/16 01:06:12;;;;;;;2.70;1.63;;;16.70;99.90;;;;;;5075618;28;20449;-75
2022/07/16 01:08:40;;;;;;;1.20;1.10;;;16.60;99.90;;;;;;5075372;28;20811;-76
2022/07/16 01:11:10;;;;;;;1.37;1.10;;;16.60;99.90;;;;;;5075174;28;20483;-75
2022/07/16 01:13:39;;;;;;;1.43;1.10;;;16.80;99.90;;;;;;5075891;28;20452;-75
2022/07/16 01:16:08;;;;;;;2.57;1.00;;;16.60;99.90;;;;;;5075131;28;20438;-77
2022/07/16 01:18:35;;;;;;;3.47;1.83;;;16.50;99.90;;;;;;5075318;28;20494;-77
2022/07/16 01:21:03;;;;;;;4.63;1.40;;;16.60;99.90;;;;;;5075543;28;20456;-76
2022/07/16 01:23:31;;;;;;;1.67;1.10;;;16.60;99.90;;;;;;5075510;28;20494;-76
2022/07/16 01:25:58;;;;;;;3.93;1.13;;;16.60;99.90;;;;;;5075202;28;20449;-76
2022/07/16 01:28:24;;;;;;;1.07;0.97;;;16.60;99.90;;;;;;5075596;28;20448;-75
2022/07/16 01:30:52;;;;;;;2.00;1.23;;;16.60;99.90;;;;;;5075294;28;20480;-76
2022/07/16 01:33:21;;;;;;;1.37;1.10;;;16.60;99.90;;;;;;5075094;28;20441;-76
2022/07/16 01:35:49;;;;;;;2.73;1.83;;;16.50;99.90;;;;;;5075447;28;20843;-76
2022/07/16 01:38:15;;;;;;;1.40;1.30;;;16.50;99.90;;;;;;5075446;28;20452;-75
2022/07/16 01:40:44;;;;;;;2.47;0.90;;;16.50;99.90;;;;;;5074697;28;20944;-76
2022/07/16 01:43:15;;;;;;;1.53;1.20;;;16.60;99.90;;;;;;5075162;28;20963;-76
2022/07/16 01:45:41;;;;;;;1.53;1.43;;;16.50;99.90;;;;;;5074911;28;20468;-76
2022/07/16 01:48:08;;;;;;;2.20;1.50;;;16.50;99.90;;;;;;5074865;28;20448;-76
2022/07/16 01:50:36;;;;;;;1.30;1.20;;;16.50;99.90;;;;;;5074361;28;20484;-75
2022/07/16 01:53:03;;;;;;;2.30;1.10;;;16.30;99.90;;;;;;5074507;28;20444;-76
2022/07/16 01:55:30;;;;;;;1.10;1.00;;;16.30;99.90;;;;;;5074024;28;20473;-75
2022/07/16 01:57:58;;;;;;;2.73;1.30;;;16.30;99.90;;;;;;5074101;28;20445;-76
2022/07/16 02:00:25;;;;;;;2.50;1.30;;;16.30;99.90;;;;;;5074023;28;20966;-76
2022/07/16 02:02:52;;;;;;;1.40;1.20;;;16.30;99.90;;;;;;5074099;28;20460;-76
2022/07/16 02:05:19;;;;;;;1.63;1.00;;;16.30;99.90;;;;;;5073851;28;20461;-76
2022/07/16 02:07:45;;;;;;;1.60;1.43;;;16.30;99.90;;;;;;5074489;28;20445;-76
2022/07/16 02:10:12;;;;;;;1.53;1.10;;;16.30;99.90;;;;;;5073701;28;20552;-76
2022/07/16 02:12:39;;;;;;;4.17;1.50;;;16.40;99.90;;;;;;5073970;28;20476;-76
2022/07/16 02:15:08;;;;;;;1.27;1.10;;;16.40;99.90;;;;;;5073526;28;20483;-76
2022/07/16 02:17:35;;;;;;;4.37;1.47;;;16.40;99.90;;;;;;5073513;28;20522;-76
2022/07/16 02:20:02;;;;;;;1.27;1.17;;;16.30;99.90;;;;;;5073477;28;20444;-76
2022/07/16 02:22:29;;;;;;;1.30;1.20;;;16.20;99.90;;;;;;5073458;28;20939;-75
2022/07/16 02:24:56;;;;;;;1.23;1.10;;;16.20;99.90;;;;;;5073356;28;20522;-76
2022/07/16 02:27:23;;;;;;;2.50;1.30;;;16.30;99.90;;;;;;5074269;28;20441;-75
2022/07/16 02:29:50;;;;;;;1.73;1.53;;;16.20;99.90;;;;;;5073662;28;20456;-76
2022/07/16 02:32:18;;;;;;;2.17;1.10;;;16.20;99.90;;;;;;5073189;28;20486;-75
2022/07/16 02:34:45;;;;;;;2.70;1.27;;;16.30;99.90;;;;;;5073584;28;20461;-76
2022/07/16 02:37:11;;;;;;;1.63;1.20;;;16.20;99.90;;;;;;5074016;28;20896;-75
2022/07/16 02:39:38;;;;;;;1.70;1.20;;;16.20;99.90;;;;;;5074938;28;20448;-75
2022/07/16 02:42:05;;;;;;;1.57;1.00;;;16.20;99.90;;;;;;5074553;28;20534;-76
2022/07/16 02:44:32;;;;;;;1.73;1.30;;;16.10;99.90;;;;;;5073358;28;20446;-76
2022/07/16 02:46:58;;;;;;;3.80;0.90;;;16.10;99.90;;;;;;5073306;28;20877;-77
2022/07/16 02:49:27;;;;;;;1.00;0.90;;;16.10;99.90;;;;;;5072168;28;20434;-75
2022/07/16 02:51:53;;;;;;;1.67;0.90;;;16.10;99.90;;;;;;5072158;28;20567;-76
2022/07/16 02:54:20;;;;;;;2.77;1.60;;;16.00;99.90;;;;;;5072955;28;20230;-76
2022/07/16 02:56:47;;;;;;;2.30;1.10;;;16.00;99.90;;;;;;5073251;28;20441;-76
2022/07/16 02:59:13;;;;;;;2.05;1.20;;;16.00;99.90;;;;;;5072355;28;20434;-76
2022/07/16 03:01:40;;;;;;;2.00;1.00;;;16.10;99.90;;;;;;5071824;28;20434;-76
2022/07/16 03:04:07;;;;;;;2.22;1.00;;;15.40;99.90;;;;;;5071825;28;20932;-76
2022/07/16 03:06:35;;;;;;;2.10;1.10;;;16.00;99.90;;;;;;5072271;28;20445;-76
2022/07/16 03:09:01;;;;;;;1.60;1.10;;;16.00;99.90;;;;;;5072990;28;20455;-77
2022/07/16 03:11:28;;;;;;;3.40;1.00;;;16.00;99.90;;;;;;5073745;28;20454;-77
2022/07/16 03:13:55;;;;;;;2.60;0.90;;;16.00;99.90;;;;;;5072181;28;20445;-74
2022/07/16 03:16:21;;;;;;;3.73;1.27;;;16.00;99.90;;;;;;5072670;28;20429;-75
2022/07/16 03:18:48;;;;;;;3.03;0.90;;;15.90;99.90;;;;;;5071855;28;20465;-75
2022/07/16 03:21:15;;;;;;;1.02;0.90;;;15.90;99.90;;;;;;5072100;28;20438;-76
2022/07/16 03:23:43;;;;;;;1.07;0.97;;;16.00;99.90;;;;;;5072795;28;20213;-75
2022/07/16 03:26:10;;;;;;;1.17;0.90;;;15.90;99.90;;;;;;5072833;28;20821;-75
2022/07/16 03:28:37;;;;;;;1.83;1.50;;;16.00;99.90;;;;;;5073085;28;20452;-75
2022/07/16 03:31:04;;;;;;;1.47;1.20;;;16.00;99.90;;;;;;5072123;28;20955;-75
2022/07/16 03:33:30;;;;;;;1.00;0.90;;;16.10;99.90;;;;;;5072807;28;20448;-76
2022/07/16 03:35:57;;;;;;;2.80;1.13;;;16.10;99.90;;;;;;5072441;28;20456;-75
2022/07/16 03:41:10;;;;;;;2.40;1.10;;;16.00;99.90;;;;;;5072583;28;20424;-77
2022/07/16 03:43:36;;;;;;;2.90;1.00;;;15.90;99.90;;;;;;5072656;28;20445;-75
2022/07/16 03:46:03;;;;;;;4.93;1.40;;;16.00;99.90;;;;;;5072887;28;20858;-76
2022/07/16 03:48:30;;;;;;;1.57;1.17;;;16.00;99.90;;;;;;5072359;28;20449;-76
2022/07/16 03:50:56;;;;;;;1.30;1.20;;;16.00;99.90;;;;;;5072618;28;20445;-75
2022/07/16 03:53:23;;;;;;;2.20;1.47;;;16.00;99.90;;;;;;5072642;28;20449;-75
2022/07/16 03:55:50;;;;;;;1.40;1.30;;;15.90;99.90;;;;;;5072551;28;20808;-75
2022/07/16 03:58:18;;;;;;;4.63;1.10;;;16.00;99.90;;;;;;5071566;28;20442;-75
2022/07/16 04:00:44;;;;;;;1.10;1.00;;;15.90;99.90;;;;;;5072573;28;20564;-75
2022/07/16 04:03:11;;;;;;;1.77;1.20;;;15.90;99.90;;;;;;5072792;28;20445;-77
2022/07/16 04:05:38;;;;;;;3.93;1.20;;;15.80;99.90;;;;;;5072914;28;20852;-75
2022/07/16 04:08:05;;;;;;;1.67;1.07;;;15.80;99.90;;;;;;5072741;28;20444;-76
2022/07/16 04:10:32;;;;;;;3.47;1.80;;;15.80;99.90;;;;;;5072163;28;20444;-76
2022/07/16 04:12:58;;;;;;;2.10;1.33;;;15.80;99.90;;;;;;5072221;28;20488;-76
2022/07/16 04:15:26;;;;;;;2.27;1.50;;;15.80;99.90;;;;;;5088404;22;20495;-77
2022/07/16 04:17:53;;;;;;;1.40;1.30;;;15.70;99.90;;;;;;5074497;28;20437;-78
2022/07/16 04:20:20;;;;;;;1.57;1.47;;;15.70;99.90;;;;;;5074950;28;20445;-78
2022/07/16 04:22:47;;;;;;;2.03;1.37;;;15.60;99.90;;;;;;5075388;28;20874;-79
2022/07/16 04:25:14;;;;;;;2.30;1.63;;;15.60;99.90;;;;;;5075053;28;20460;-78
2022/07/16 04:27:41;;;;;;;1.70;1.50;;;15.70;99.90;;;;;;5075487;28;20535;-78
2022/07/16 04:30:10;;;;;;;3.63;1.63;;;15.70;99.90;;;;;;5075885;28;20480;-78
2022/07/16 04:32:39;;;;;;;2.90;1.20;;;15.70;99.90;;;;;;5075251;28;20480;-80
2022/07/16 04:35:07;;;;;;;2.63;1.33;;;15.70;99.90;;;;;;5074153;28;20959;-79
2022/07/16 04:37:35;;;;;;;2.50;1.83;;;15.70;99.90;;;;;;5075537;28;20452;-79
2022/07/16 04:40:02;;;;;;;7.67;2.03;;;15.80;99.90;;;;;;5079097;28;20455;-78
2022/07/16 04:42:29;;;;;;;1.47;1.37;;;15.80;99.90;;;;;;5087205;28;20445;-77
2022/07/16 04:44:56;;;;;;;2.60;1.67;;;15.80;99.90;;;;;;5087583;28;20975;-77
2022/07/16 04:47:23;;;;;;;1.50;1.23;;;15.90;99.90;;;;;;5088016;28;20444;-79
2022/07/16 04:49:51;;;;;;;1.97;1.80;;;15.90;99.90;;;;;;5079229;28;20458;-78
2022/07/16 04:52:18;;;;;;;3.60;1.80;;;16.00;99.90;;;;;;5078331;28;20480;-79
2022/07/16 04:54:44;;;;;;;1.40;1.30;;;16.00;99.90;;;;;;5078635;28;20471;-78
2022/07/16 04:57:11;;;;;;;2.80;1.60;;;16.00;99.90;;;;;;5078783;28;20456;-79
2022/07/16 04:59:38;;;;;;;1.63;1.20;;;16.00;99.90;;;;;;5079622;28;20452;-78
2022/07/16 05:04:45;;;;;;;2.50;1.63;;;16.10;99.90;;;;;;5079521;28;20456;-78
2022/07/16 05:07:13;;;;;;;2.22;0.98;;;16.10;99.90;;;;;;5080754;28;20513;-77
2022/07/16 05:09:40;;;;;;;2.17;1.37;;;16.10;99.90;;;;;;5077956;28;20213;-79
2022/07/16 05:12:07;;;;;;;1.33;1.23;;;16.10;99.90;;;;;;5078319;28;20484;-79
2022/07/16 05:14:34;;;;;;;1.40;1.17;;;16.10;99.90;;;;;;5079137;28;20476;-78
2022/07/16 05:17:00;;;;;;;2.23;1.73;;;16.20;99.90;;;;;;5087135;28;20425;-77
2022/07/16 05:19:27;;;;;;;3.40;1.20;;;16.30;99.90;;;;;;5083436;28;20422;-78
2022/07/16 05:21:54;;;;;;;1.50;1.40;;;16.30;99.90;;;;;;5079660;28;20595;-79
2022/07/16 05:24:23;;;;;;;1.60;1.50;;;16.30;99.90;;;;;;5078990;28;21006;-79
2022/07/16 05:26:50;;;;;;;0.90;0.90;;;16.30;99.90;;;;;;5079161;28;20532;-79
2022/07/16 05:29:24;;;;;;;3.93;1.37;;;16.30;99.90;;;;;;5078048;28;20436;-80
2022/07/16 05:31:50;;;;;;;2.27;1.33;;;16.30;99.90;;;;;;5078604;28;20556;-80
2022/07/16 05:34:17;;;;;;;1.33;1.10;;;16.30;99.90;;;;;;5078405;28;20453;-79
2022/07/16 05:36:44;;;;;;;2.93;1.23;;;16.20;99.90;;;;;;5078839;28;20525;-79
2022/07/16 05:39:11;;;;;;;4.30;1.53;;;16.10;99.90;;;;;;5078097;28;21051;-79
2022/07/16 05:41:39;;;;;;;5.63;1.50;;;16.30;99.90;;;;;;5078233;28;20452;-79
2022/07/16 05:44:06;;;;;;;1.70;1.07;;;16.20;99.90;;;;;;5077953;28;20449;-80
2022/07/16 05:46:33;;;;;;;1.30;1.20;;;16.40;99.90;;;;;;5077769;28;20456;-79
2022/07/16 05:48:59;;;;;;;3.20;1.00;;;16.40;99.90;;;;;;5077872;28;20939;-80
2022/07/16 05:51:26;;;;;;;4.37;1.37;;;16.40;99.90;;;;;;5077514;28;20452;-79
2022/07/16 05:53:53;;;;;;;4.67;1.60;;;16.50;99.90;;;;;;5076384;28;20502;-79
2022/07/16 05:56:19;;;;;;;2.63;1.50;;;16.60;99.90;;;;;;5077332;28;20445;-78
2022/07/16 05:58:48;;;;;;;1.87;1.27;;;16.70;99.90;;;;;;5076919;28;20967;-79
2022/07/16 06:01:14;;;;;;;2.83;1.77;;;16.70;99.90;;;;;;5077566;28;20996;-79
2022/07/16 06:03:41;;;;;;;1.53;1.43;;;16.90;99.90;;;;;;5077395;28;20437;-79
2022/07/16 06:06:08;;;;;;;2.53;1.40;;;16.60;99.90;;;;;;5077034;28;20465;-79
2022/07/16 06:08:35;;;;;;;3.27;1.70;;;17.00;99.90;;;;;;5076202;28;20457;-80
2022/07/16 06:11:01;;;;;;;2.23;1.80;;;17.00;99.90;;;;;;5078349;28;20445;-77
2022/07/16 06:13:28;;;;;;;2.40;1.80;;;17.00;99.90;;;;;;5083401;28;20477;-79
2022/07/16 06:15:56;;;;;;;2.77;1.90;;;17.00;99.90;;;;;;5077456;28;20843;-77
2022/07/16 06:18:23;;;;;;;2.20;1.87;;;16.80;99.90;;;;;;5078998;28;20448;-79
2022/07/16 06:20:50;;;;;;;2.47;1.57;;;16.40;99.90;;;;;;5078632;28;20866;-78
2022/07/16 06:23:16;;;;;;;2.40;2.20;;;16.20;99.90;;;;;;5077089;28;20969;-79
2022/07/16 06:25:43;;;;;;;3.20;2.47;;;15.90;99.90;;;;;;5086465;28;20480;-78
2022/07/16 06:28:10;;;;;;;2.50;2.30;;;15.70;99.90;;;;;;5088500;28;20437;-77
2022/07/16 06:30:37;;;;;;;5.00;1.90;;;15.50;99.90;;;;;;5085698;28;20459;-76
2022/07/16 06:33:05;;;;;;;6.67;2.73;;;15.40;99.90;;;;;;5085960;28;20477;-77
2022/07/16 06:35:32;;;;;;;3.10;2.63;;;15.10;99.90;;;;;;5082934;28;20476;-78
2022/07/16 06:37:59;;;;;;;9.63;2.80;;;14.90;99.90;;;;;;5080397;28;20440;-79
2022/07/16 06:40:26;;;;;;;3.63;3.03;;;14.50;99.90;;;;;;5080036;28;20453;-79
2022/07/16 06:42:52;;;;;;;6.53;3.30;;;14.60;99.90;;;;;;5077321;28;20441;-80
2022/07/16 06:45:19;;;;;;;4.00;3.60;;;14.50;99.90;;;;;;5076746;28;20480;-80
2022/07/16 06:47:46;;;;;;;4.60;3.70;;;14.40;99.90;;;;;;5077093;28;20463;-79
2022/07/16 06:50:14;;;;;;;4.60;2.90;;;14.40;99.90;;;;;;5080316;28;20448;-79
2022/07/16 06:52:41;;;;;;;4.30;3.07;;;14.30;99.90;;;;;;5078938;28;20483;-78
2022/07/16 06:55:08;;;;;;;13.50;3.60;;;14.40;99.90;;;;;;5077899;28;20471;-79
2022/07/16 06:57:35;;;;;;;13.40;3.73;;;14.30;99.90;;;;;;5076414;28;20498;-79
2022/07/16 07:00:02;;;;;;;4.77;3.10;;;14.30;99.90;;;;;;5075121;28;20452;-80
2022/07/16 07:02:28;;;;;;;4.57;3.70;;;14.30;99.90;;;;;;5077699;28;20443;-79
2022/07/16 07:04:55;;;;;;;8.60;4.57;;;14.40;99.90;;;;;;5084377;28;20457;-81
2022/07/16 07:07:23;;;;;;;4.00;3.60;;;14.30;99.90;;;;;;5080805;28;20452;-82
2022/07/16 07:09:50;;;;;;;3.90;3.47;;;14.40;99.90;;;;;;5076617;28;20444;-80
2022/07/16 07:12:17;;;;;;;4.40;3.60;;;14.50;99.90;;;;;;5078760;28;20480;-79
2022/07/16 07:14:43;;;;;;;4.90;4.33;;;14.60;99.90;;;;;;5077946;28;20496;-80
2022/07/16 07:17:10;;;;;;;3.63;3.40;;;14.60;99.90;;;;;;5076105;28;20928;-81
2022/07/16 07:19:37;;;;;;;4.17;3.77;;;14.70;99.90;;;;;;5076202;28;20456;-82
2022/07/16 07:22:04;;;;;;;3.87;3.60;;;14.80;99.90;;;;;;5075614;28;20453;-81
2022/07/16 07:24:32;;;;;;;4.63;4.20;;;15.00;99.90;;;;;;5075702;28;20538;-80
2022/07/16 07:26:59;;;;;;;6.40;3.67;;;15.10;99.90;;;;;;5078564;28;20444;-80
2022/07/16 07:29:26;;;;;;;4.23;3.80;;;15.20;99.90;;;;;;5076878;28;20503;-80
2022/07/16 07:31:52;;;;;;;6.30;3.50;;;15.20;99.90;;;;;;5077982;28;20435;-81
2022/07/16 07:34:19;;;;;;;3.87;3.60;;;15.30;99.90;;;;;;5080799;28;20484;-81
2022/07/16 07:36:46;;;;;;;7.13;4.00;;;15.50;99.90;;;;;;5078862;28;20444;-82
2022/07/16 07:39:13;;;;;;;3.80;3.47;;;15.60;99.90;;;;;;5077285;28;20445;-80
2022/07/16 07:41:41;;;;;;;4.80;3.73;;;15.70;99.90;;;;;;5076992;28;20928;-81
2022/07/16 07:44:08;;;;;;;4.07;3.70;;;16.00;99.90;;;;;;5078387;28;20441;-83
2022/07/16 07:46:36;;;;;;;4.23;3.83;;;15.80;99.90;;;;;;5080944;28;20453;-80
2022/07/16 07:49:03;;;;;;;5.70;4.07;;;15.80;99.90;;;;;;5078928;28;20487;-79
2022/07/16 07:51:30;;;;;;;6.83;3.63;;;15.90;99.90;;;;;;5079873;28;20456;-80
2022/07/16 07:53:56;;;;;;;4.07;3.77;;;16.00;99.90;;;;;;5078446;28;20476;-80
2022/07/16 07:56:23;;;;;;;3.47;3.17;;;16.10;99.90;;;;;;5079439;28;20453;-81
2022/07/16 07:58:51;;;;;;;3.63;2.90;;;16.10;99.90;;;;;;5078637;28;20456;-80
2022/07/16 08:01:18;;;;;;;8.70;3.40;;;16.10;99.90;;;;;;5075989;28;20788;-81
2022/07/16 08:03:45;;;;;;;3.70;3.40;;;16.20;99.90;;;;;;5076349;28;20774;-80
2022/07/16 08:06:15;;;;;;;4.80;2.70;;;16.10;99.90;;;;;;5074980;28;20472;-81
2022/07/16 08:08:42;;;;;;;5.30;3.60;;;16.30;99.90;;;;;;5076537;28;20437;-81
2022/07/16 08:11:17;;;;;;;4.37;3.60;;;16.30;99.90;;;;;;5075474;28;20441;-81
2022/07/16 08:13:44;;;;;;;3.77;3.47;;;16.40;99.90;;;;;;5075241;28;20798;-81
2022/07/16 08:16:12;;;;;;;2.80;2.60;;;16.50;99.90;;;;;;5075949;28;20855;-81
2022/07/16 08:18:38;;;;;;;3.30;2.47;;;16.50;99.90;;;;;;5079738;28;20456;-81
2022/07/16 08:21:05;;;;;;;3.63;2.83;;;16.40;99.90;;;;;;5078702;28;20445;-81
2022/07/16 08:26:16;;;;;;;3.80;3.10;;;16.70;99.90;;;;;;5078884;28;20447;-81
2022/07/16 08:28:44;;;;;;;3.50;3.30;;;16.70;99.90;;;;;;5079170;28;20452;-81
2022/07/16 08:31:13;;;;;;;3.23;2.33;;;16.80;99.90;;;;;;5078816;28;20482;-80
2022/07/16 08:33:40;;;;;;;2.50;1.90;;;17.00;99.90;;;;;;5078951;28;20480;-82
2022/07/16 08:36:07;;;;;;;2.40;2.30;;;17.10;99.90;;;;;;5079305;28;20830;-82
2022/07/16 08:38:34;;;;;;;7.17;2.20;;;17.30;99.90;;;;;;5078921;28;20445;-80
2022/07/16 08:41:02;;;;;;;2.33;1.90;;;17.30;99.90;;;;;;5079321;28;20437;-79
2022/07/16 08:43:30;;;;;;;4.97;2.13;;;17.30;99.90;;;;;;5080006;28;20448;-80
2022/07/16 08:45:57;;;;;;;2.13;2.03;;;17.30;99.90;;;;;;5079094;28;20456;-79
2022/07/16 08:48:26;;;;;;;2.17;1.97;;;17.30;99.90;;;;;;5078777;28;20478;-79
2022/07/16 08:50:54;;;;;;;3.47;1.77;;;17.20;99.90;;;;;;5077816;28;20454;-80
2022/07/16 08:53:24;;;;;;;3.40;2.03;;;17.10;99.90;;;;;;5077916;28;20480;-81
2022/07/16 08:55:53;;;;;;;1.80;1.70;;;17.40;99.90;;;;;;5077603;28;20555;-81
2022/07/16 08:58:20;;;;;;;1.37;1.27;;;17.50;99.90;;;;;;5079501;28;20449;-80
2022/07/16 09:00:47;;;;;;;4.03;1.67;;;17.70;99.90;;;;;;5078198;28;20449;-81
2022/07/16 09:03:14;;;;;;;1.87;1.57;;;17.90;99.90;;;;;;5078487;28;20484;-80
2022/07/16 09:05:42;;;;;;;1.80;1.70;;;18.00;99.90;;;;;;5078881;28;20468;-81
2022/07/16 09:08:09;;;;;;;2.07;1.60;;;18.00;99.90;;;;;;5078276;28;20948;-79
2022/07/16 09:10:36;;;;;;;1.60;1.50;;;17.90;99.90;;;;;;5078087;28;20461;-81
2022/07/16 09:13:04;;;;;;;3.63;2.00;;;17.80;99.90;;;;;;5077783;28;20476;-79
2022/07/16 09:15:33;;;;;;;1.60;1.50;;;17.90;99.90;;;;;;5078840;28;20480;-81
2022/07/16 09:18:16;;;;;;;3.77;1.70;;;18.00;99.90;;;;;;5078063;28;20444;-81
2022/07/16 09:20:46;;;;;;;1.83;1.60;;;17.90;99.90;;;;;;5080034;28;20981;-79
2022/07/16 09:23:26;;;;;;;1.90;1.70;;;17.90;99.90;;;;;;5087585;28;20432;-80
2022/07/16 09:25:56;;;;;;;2.13;1.10;;;17.90;99.90;;;;;;5091712;28;20471;-80
2022/07/16 09:28:24;;;;;;;1.60;1.50;;;17.90;99.90;;;;;;5077860;28;20531;-82
2022/07/16 09:30:51;;;;;;;1.77;1.50;;;18.10;99.90;;;;;;5078860;28;20460;-82
2022/07/16 09:33:23;;;;;;;2.40;1.40;;;18.40;99.90;;;;;;5079139;28;20484;-81
2022/07/16 09:36:07;;;;;;;2.70;1.30;;;18.40;99.90;;;;;;5078980;28;20852;-82
2022/07/16 09:38:51;;;;;;;2.10;1.30;;;18.40;99.90;;;;;;5079484;28;20433;-82
2022/07/16 09:41:18;;;;;;;1.30;1.20;;;18.30;99.90;;;;;;5078856;28;20487;-81
2022/07/16 09:43:45;;;;;;;1.20;1.10;;;18.30;99.90;;;;;;5079094;28;20445;-82
2022/07/16 09:46:16;;;;;;;3.50;1.33;;;18.20;99.90;;;;;;5085063;28;20469;-80
2022/07/16 09:48:44;;;;;;;4.30;1.30;;;18.30;99.90;;;;;;5093114;28;20436;-81
2022/07/16 09:51:18;;;;;;;2.60;1.23;;;18.40;99.90;;;;;;5087617;28;20831;-80
2022/07/16 09:53:46;;;;;;;1.93;1.30;;;18.60;99.90;;;;;;5087883;28;20470;-80
2022/07/16 09:56:15;;;;;;;2.30;1.40;;;18.80;99.90;;;;;;5091951;28;20465;-80
2022/07/16 09:58:46;;;;;;;1.10;1.00;;;19.10;99.90;;;;;;5085296;28;20969;-80
2022/07/16 10:01:14;;;;;;;1.37;1.20;;;19.10;99.90;;;;;;5090362;28;20452;-80
2022/07/16 10:03:41;;;;;;;0.80;0.80;;;19.10;99.90;;;;;;5086018;28;20498;-83
2022/07/16 10:06:09;;;;;;;1.50;1.40;;;19.10;99.90;;;;;;5086009;28;20465;-80
2022/07/16 10:08:37;;;;;;;1.10;1.00;;;19.10;99.90;;;;;;5080869;28;20498;-81
2022/07/16 10:11:04;;;;;;;1.90;1.07;;;19.20;99.90;;;;;;5080129;28;20444;-80
2022/07/16 10:13:33;;;;;;;2.30;1.30;;;19.40;99.90;;;;;;5080539;28;20484;-81
2022/07/16 10:16:02;;;;;;;1.30;1.20;;;;;;;;;;5107839;22;20484;-80
2022/07/16 10:18:43;;;;;;;1.13;1.03;;;19.60;99.90;;;;;;5090687;28;20433;-80
2022/07/16 10:21:16;;;;;;;2.43;1.20;;;19.40;99.90;;;;;;5089000;28;20453;-80
2022/07/16 10:23:47;;;;;;;1.23;1.10;;;19.10;99.90;;;;;;5088617;28;20428;-81
2022/07/16 10:26:16;;;;;;;2.80;1.20;;;19.00;99.90;;;;;;5088577;28;20460;-80
2022/07/16 10:28:46;;;;;;;1.53;1.00;;;19.00;99.90;;;;;;5082202;28;20907;-80
2022/07/16 10:31:40;;;;;;;2.10;1.10;;;19.00;99.90;;;;;;5080723;28;20444;-81
2022/07/16 10:34:41;;;;;;;4.63;2.47;;;19.10;99.90;;;;;;5066188;28;20483;-80
2022/07/16 10:37:15;;;;;;;2.23;1.20;;;19.10;99.90;;;;;;5081449;28;20452;-80
2022/07/16 10:40:02;;;;;;;2.10;1.33;;;19.20;99.90;;;;;;5080437;28;20506;-80
2022/07/16 10:42:30;;;;;;;1.83;1.30;;;19.40;99.90;;;;;;5080992;28;20429;-82
2022/07/16 10:44:56;;;;;;;2.30;1.53;;;19.40;99.90;;;;;;5095258;28;20433;-80
2022/07/16 10:47:47;;;;;;;2.93;1.20;;;19.60;99.90;;;;;;5095471;28;20508;-80
2022/07/16 10:50:20;;;;;;;2.80;1.10;;;19.60;99.90;;;;;;5093191;28;20446;-80
2022/07/16 10:52:49;;;;;;;1.20;1.10;;;19.70;99.90;;;;;;5082955;28;20444;-81
2022/07/16 10:55:31;;;;;;;2.03;1.50;;;19.80;99.90;;;;;;5081335;28;20481;-80
2022/07/16 10:57:58;;;;;;;2.40;1.50;;;19.90;99.90;;;;;;5081936;28;20435;-80
2022/07/16 11:00:25;;;;;;;1.67;1.20;;;20.00;99.90;;;;;;5080803;28;20449;-80
2022/07/16 11:02:58;;;;;;;5.07;1.20;;;19.80;99.90;;;;;;5080734;28;20449;-80
2022/07/16 11:05:26;;;;;;;1.73;1.03;;;19.60;99.90;;;;;;5079530;28;20464;-80
2022/07/16 11:07:53;;;;;;;2.83;1.20;;;19.50;99.90;;;;;;5079106;28;20823;-79
2022/07/16 11:10:25;;;;;;;1.23;1.13;;;19.40;99.90;;;;;;5078784;28;20470;-79
2022/07/16 11:12:53;;;;;;;2.03;1.03;;;19.30;99.90;;;;;;5080223;28;20436;-79
2022/07/16 11:15:20;;;;;;;4.97;1.20;;;19.20;99.90;;;;;;5085982;28;20862;-79
2022/07/16 11:17:57;;;;;;;1.27;1.17;;;19.10;99.90;;;;;;5083560;28;20483;-79
2022/07/16 11:20:35;;;;;;;1.93;1.30;;;19.20;99.90;;;;;;5083029;28;20437;-80
2022/07/16 11:23:06;;;;;;;3.73;1.30;;;19.30;99.90;;;;;;5078098;28;20444;-81
2022/07/16 11:25:34;;;;;;;1.47;1.37;;;19.50;99.90;;;;;;5076920;28;20493;-80
2022/07/16 11:28:02;;;;;;;2.43;1.47;;;19.40;99.90;;;;;;5075476;28;21006;-78
2022/07/16 11:30:31;;;;;;;4.23;1.60;;;19.20;99.90;;;;;;5076346;28;20451;-81
2022/07/16 11:32:58;;;;;;;7.50;1.40;;;19.20;99.90;;;;;;5078146;28;20484;-79
2022/07/16 11:35:24;;;;;;;1.37;1.17;;;19.10;99.90;;;;;;5077138;28;20484;-80
2022/07/16 11:37:53;;;;;;;3.40;1.60;;;19.30;99.90;;;;;;5077766;28;20898;-79
2022/07/16 11:40:20;;;;;;;4.43;2.20;;;19.50;99.90;;;;;;5077642;28;20793;-79
2022/07/16 11:42:58;;;;;;;1.37;1.27;;;19.70;99.90;;;;;;5077763;28;20540;-80
2022/07/16 11:45:26;;;;;;;2.17;1.33;;;19.80;99.90;;;;;;5084220;28;20458;-79
2022/07/16 11:48:09;;;;;;;1.70;1.40;;;19.60;99.90;;;;;;5089062;28;20450;-79
2022/07/16 11:50:41;;;;;;;3.37;2.23;;;19.50;99.90;;;;;;5077803;28;20872;-79
2022/07/16 11:53:08;;;;;;;1.80;1.00;;;19.30;99.90;;;;;;5079976;28;20437;-79
2022/07/16 11:55:35;;;;;;;1.87;1.20;;;19.50;99.90;;;;;;5079363;28;20484;-79
2022/07/16 11:58:05;;;;;;;2.07;1.03;;;19.50;99.90;;;;;;5079567;28;20502;-80
2022/07/16 12:00:42;;;;;;;3.17;1.60;;;19.40;99.90;;;;;;5079746;28;20452;-79
2022/07/16 12:03:11;;;;;;;1.77;1.27;;;19.50;99.90;;;;;;5078892;28;20412;-80
2022/07/16 12:05:38;;;;;;;1.73;1.00;;;19.70;99.90;;;;;;5080008;28;20468;-78
2022/07/16 12:08:05;;;;;;;1.50;1.10;;;20.00;99.90;;;;;;5083189;28;20449;-79
2022/07/16 12:10:32;;;;;;;1.10;1.00;;;20.20;99.90;;;;;;5083816;28;20445;-78
2022/07/16 12:13:04;;;;;;;2.00;1.60;;;20.40;99.90;;;;;;5079703;28;20451;-80
2022/07/16 12:15:50;;;;;;;1.90;1.30;;;20.60;99.90;;;;;;5079995;28;20491;-79
2022/07/16 12:18:17;;;;;;;3.60;1.00;;;20.40;99.90;;;;;;5081444;28;20432;-80
2022/07/16 12:20:44;;;;;;;3.27;1.13;;;20.30;99.90;;;;;;5082258;28;20874;-80
2022/07/16 12:23:13;;;;;;;3.53;1.30;;;20.00;99.90;;;;;;5082979;28;20456;-80
2022/07/16 12:25:41;;;;;;;1.63;1.20;;;20.00;99.70;;;;;;5078981;28;20475;-78
2022/07/16 12:28:11;;;;;;;2.70;2.30;;;20.00;99.30;;;;;;5080278;28;20436;-79
2022/07/16 12:30:40;;;;;;;3.03;1.17;;;20.00;99.90;;;;;;5080353;28;20495;-79
2022/07/16 12:33:11;;;;;;;1.83;1.10;;;19.80;99.80;;;;;;5081221;28;20517;-78
2022/07/16 12:35:44;;;;;;;2.13;1.00;;;20.00;99.70;;;;;;5079793;28;20574;-78
2022/07/16 12:38:41;;;;;;;3.63;1.40;;;20.20;98.90;;;;;;5081466;28;20441;-78
2022/07/16 12:41:11;;;;;;;4.93;1.57;;;20.30;98.90;;;;;;5082238;28;20468;-79
2022/07/16 12:43:40;;;;;;;2.00;0.97;;;20.50;98.10;;;;;;5080078;28;20452;-79
2022/07/16 12:46:07;;;;;;;2.90;1.40;;;20.70;98.00;;;;;;5078154;28;20534;-79
2022/07/16 12:48:41;;;;;;;2.63;0.90;;;20.80;97.30;;;;;;5079265;28;20577;-78
2022/07/16 12:51:08;;;;;;;1.20;0.87;;;20.70;96.00;;;;;;5084290;28;20428;-79
2022/07/16 12:53:35;;;;;;;2.70;1.10;;;20.60;94.90;;;;;;5085868;28;20516;-79
2022/07/16 12:58:50;;;;;;;8.60;1.53;;;20.60;96.90;;;;;;5079236;28;20896;-78
2022/07/16 13:01:19;;;;;;;1.53;1.10;;;20.70;96.60;;;;;;5078368;28;20439;-79
2022/07/16 13:03:46;;;;;;;1.00;0.90;;;;;;;;;;5076983;28;20451;-78
2022/07/16 13:06:14;;;;;;;0.80;0.80;;;20.60;96.90;;;;;;5077033;28;20842;-79